sensor_id;sensor_type;location;lat;lon;timestamp;pressure;altitude;pressure_sealevel;temperature;humidity
11395;BME280;5753;54.402;10.220;2023-02-13T00:02:19;103790.97;;;14.21;52.33
11395;BME280;5753;54.402;10.220;2023-02-13T00:04:45;103781.25;;;13.99;53.12
11395;BME280;5753;54.402;10.220;2023-02-13T00:07:12;103775.97;;;15.88;49.45
11395;BME280;5753;54.402;10.220;2023-02-13T00:09:41;103782.59;;;15.80;48.22
11395;BME280;5753;54.402;10.220;2023-02-13T00:12:07;103785.75;;;14.74;50.49
11395;BME280;5753;54.402;10.220;2023-02-13T00:14:35;103780.66;;;12.41;56.42
11395;BME280;5753;54.402;10.220;2023-02-13T00:17:02;103787.44;;;14.93;51.28
11395;BME280;5753;54.402;10.220;2023-02-13T00:19:28;103778.19;;;14.08;52.85
11395;BME280;5753;54.402;10.220;2023-02-13T00:21:54;103776.78;;;14.68;52.05
11395;BME280;5753;54.402;10.220;2023-02-13T00:24:21;103773.53;;;12.84;55.20
11395;BME280;5753;54.402;10.220;2023-02-13T00:26:47;103763.75;;;14.13;52.89
11395;BME280;5753;54.402;10.220;2023-02-13T00:29:13;103766.28;;;13.94;53.88
11395;BME280;5753;54.402;10.220;2023-02-13T00:31:39;103765.44;;;13.10;54.74
11395;BME280;5753;54.402;10.220;2023-02-13T00:34:05;103761.97;;;13.94;53.79
11395;BME280;5753;54.402;10.220;2023-02-13T00:36:32;103761.75;;;14.07;53.57
11395;BME280;5753;54.402;10.220;2023-02-13T00:38:58;103759.25;;;14.27;53.27
11395;BME280;5753;54.402;10.220;2023-02-13T00:41:24;103761.63;;;13.04;55.04
11395;BME280;5753;54.402;10.220;2023-02-13T00:43:51;103758.69;;;13.29;55.08
11395;BME280;5753;54.402;10.220;2023-02-13T00:46:17;103763.13;;;13.31;54.03
11395;BME280;5753;54.402;10.220;2023-02-13T00:48:44;103765.31;;;13.92;52.77
11395;BME280;5753;54.402;10.220;2023-02-13T00:51:10;103775.41;;;13.03;55.65
11395;BME280;5753;54.402;10.220;2023-02-13T00:53:37;103766.59;;;13.32;53.28
11395;BME280;5753;54.402;10.220;2023-02-13T00:56:04;103766.34;;;12.95;56.02
11395;BME280;5753;54.402;10.220;2023-02-13T00:58:31;103770.47;;;12.91;55.46
11395;BME280;5753;54.402;10.220;2023-02-13T01:00:58;103757.47;;;14.43;52.20
11395;BME280;5753;54.402;10.220;2023-02-13T01:03:24;103762.94;;;12.32;56.46
11395;BME280;5753;54.402;10.220;2023-02-13T01:05:51;103763.22;;;13.84;54.22
11395;BME280;5753;54.402;10.220;2023-02-13T01:08:18;103757.81;;;13.13;56.43
11395;BME280;5753;54.402;10.220;2023-02-13T01:10:46;103764.31;;;13.38;55.78
11395;BME280;5753;54.402;10.220;2023-02-13T01:13:14;103764.72;;;12.18;59.17
11395;BME280;5753;54.402;10.220;2023-02-13T01:15:41;103769.59;;;12.43;58.47
11395;BME280;5753;54.402;10.220;2023-02-13T01:18:08;103762.25;;;13.31;56.86
11395;BME280;5753;54.402;10.220;2023-02-13T01:20:34;103760.59;;;12.37;58.82
11395;BME280;5753;54.402;10.220;2023-02-13T01:23:01;103767.13;;;13.10;57.19
11395;BME280;5753;54.402;10.220;2023-02-13T01:25:27;103756.16;;;12.81;57.61
11395;BME280;5753;54.402;10.220;2023-02-13T01:27:53;103755.88;;;13.09;57.25
11395;BME280;5753;54.402;10.220;2023-02-13T01:30:19;103754.03;;;14.44;53.51
11395;BME280;5753;54.402;10.220;2023-02-13T01:32:46;103751.47;;;12.43;59.08
11395;BME280;5753;54.402;10.220;2023-02-13T01:35:13;103750.03;;;14.51;52.87
11395;BME280;5753;54.402;10.220;2023-02-13T01:37:40;103755.47;;;13.50;54.58
11395;BME280;5753;54.402;10.220;2023-02-13T01:40:10;103760.13;;;13.40;55.38
11395;BME280;5753;54.402;10.220;2023-02-13T01:42:37;103756.78;;;14.47;53.06
11395;BME280;5753;54.402;10.220;2023-02-13T01:47:52;103754.56;;;13.50;55.42
11395;BME280;5753;54.402;10.220;2023-02-13T01:55:33;103751.91;;;13.16;55.84
11395;BME280;5753;54.402;10.220;2023-02-13T01:58:11;103744.25;;;13.17;55.42
11395;BME280;5753;54.402;10.220;2023-02-13T02:00:38;103747.81;;;13.19;56.07
11395;BME280;5753;54.402;10.220;2023-02-13T02:03:09;103754.00;;;12.58;57.11
11395;BME280;5753;54.402;10.220;2023-02-13T02:05:38;103748.16;;;12.46;57.55
11395;BME280;5753;54.402;10.220;2023-02-13T02:08:08;103748.31;;;12.96;56.45
11395;BME280;5753;54.402;10.220;2023-02-13T02:10:35;103753.28;;;12.77;56.11
11395;BME280;5753;54.402;10.220;2023-02-13T02:15:29;103750.69;;;12.77;56.80
11395;BME280;5753;54.402;10.220;2023-02-13T02:17:55;103734.34;;;13.77;54.24
11395;BME280;5753;54.402;10.220;2023-02-13T02:20:34;103740.66;;;13.48;54.26
11395;BME280;5753;54.402;10.220;2023-02-13T02:45:32;103734.38;;;12.94;53.79
11395;BME280;5753;54.402;10.220;2023-02-13T02:48:10;103729.41;;;14.18;51.74
11395;BME280;5753;54.402;10.220;2023-02-13T02:53:32;103735.03;;;12.90;53.89
11395;BME280;5753;54.402;10.220;2023-02-13T02:56:27;103726.84;;;13.31;53.54
11395;BME280;5753;54.402;10.220;2023-02-13T02:59:04;103733.91;;;12.85;53.84
11395;BME280;5753;54.402;10.220;2023-02-13T03:01:52;103735.19;;;13.09;53.47
11395;BME280;5753;54.402;10.220;2023-02-13T03:04:43;103727.97;;;12.24;55.59
11395;BME280;5753;54.402;10.220;2023-02-13T03:07:29;103723.84;;;13.07;52.35
11395;BME280;5753;54.402;10.220;2023-02-13T03:09:59;103723.53;;;13.01;53.14
11395;BME280;5753;54.402;10.220;2023-02-13T03:15:45;103714.91;;;13.69;51.30
11395;BME280;5753;54.402;10.220;2023-02-13T03:18:34;103720.59;;;11.84;55.59
11395;BME280;5753;54.402;10.220;2023-02-13T03:27:08;103712.53;;;12.73;53.24
11395;BME280;5753;54.402;10.220;2023-02-13T03:41:42;103714.22;;;14.63;49.16
11395;BME280;5753;54.402;10.220;2023-02-13T03:47:03;103718.19;;;13.82;50.47
11395;BME280;5753;54.402;10.220;2023-02-13T03:49:35;103722.34;;;12.78;53.13
11395;BME280;5753;54.402;10.220;2023-02-13T03:52:31;103720.41;;;14.85;48.62
11395;BME280;5753;54.402;10.220;2023-02-13T03:57:46;103721.56;;;14.17;50.17
11395;BME280;5753;54.402;10.220;2023-02-13T04:00:45;103718.16;;;15.95;46.57
11395;BME280;5753;54.402;10.220;2023-02-13T04:03:21;103728.50;;;15.11;48.07
11395;BME280;5753;54.402;10.220;2023-02-13T04:09:00;103735.66;;;14.04;50.45
11395;BME280;5753;54.402;10.220;2023-02-13T04:14:19;103728.50;;;14.54;49.89
11395;BME280;5753;54.402;10.220;2023-02-13T04:16:54;103729.53;;;14.57;50.07
11395;BME280;5753;54.402;10.220;2023-02-13T04:19:24;103730.00;;;14.48;50.09
11395;BME280;5753;54.402;10.220;2023-02-13T04:21:56;103730.88;;;14.67;49.42
11395;BME280;5753;54.402;10.220;2023-02-13T04:24:24;103728.53;;;14.36;50.30
11395;BME280;5753;54.402;10.220;2023-02-13T04:26:50;103732.91;;;12.67;54.19
11395;BME280;5753;54.402;10.220;2023-02-13T04:29:17;103731.94;;;14.53;50.32
11395;BME280;5753;54.402;10.220;2023-02-13T04:31:43;103729.31;;;15.30;48.48
11395;BME280;5753;54.402;10.220;2023-02-13T04:34:09;103731.84;;;15.68;47.63
11395;BME280;5753;54.402;10.220;2023-02-13T04:36:36;103740.09;;;13.71;51.33
11395;BME280;5753;54.402;10.220;2023-02-13T04:39:02;103732.19;;;13.34;52.70
11395;BME280;5753;54.402;10.220;2023-02-13T04:41:28;103730.28;;;15.12;48.88
11395;BME280;5753;54.402;10.220;2023-02-13T04:43:54;103731.72;;;14.12;50.45
11395;BME280;5753;54.402;10.220;2023-02-13T04:46:20;103731.38;;;14.60;50.42
11395;BME280;5753;54.402;10.220;2023-02-13T04:48:47;103723.34;;;15.72;47.55
11395;BME280;5753;54.402;10.220;2023-02-13T04:51:13;103731.75;;;14.87;49.13
11395;BME280;5753;54.402;10.220;2023-02-13T04:53:39;103732.69;;;13.27;52.07
11395;BME280;5753;54.402;10.220;2023-02-13T04:56:05;103730.97;;;12.95;53.41
11395;BME280;5753;54.402;10.220;2023-02-13T04:58:32;103725.72;;;15.07;49.21
11395;BME280;5753;54.402;10.220;2023-02-13T05:00:58;103732.75;;;15.29;47.77
11395;BME280;5753;54.402;10.220;2023-02-13T05:03:24;103732.03;;;14.73;49.37
11395;BME280;5753;54.402;10.220;2023-02-13T05:05:50;103731.91;;;15.30;48.44
11395;BME280;5753;54.402;10.220;2023-02-13T05:08:16;103730.13;;;14.69;48.95
11395;BME280;5753;54.402;10.220;2023-02-13T05:10:43;103721.97;;;14.62;49.13
11395;BME280;5753;54.402;10.220;2023-02-13T05:13:09;103720.63;;;15.29;48.29
11395;BME280;5753;54.402;10.220;2023-02-13T05:15:35;103732.16;;;15.15;48.38
11395;BME280;5753;54.402;10.220;2023-02-13T05:18:01;103724.75;;;15.05;48.66
11395;BME280;5753;54.402;10.220;2023-02-13T05:20:27;103731.25;;;14.95;48.81
11395;BME280;5753;54.402;10.220;2023-02-13T05:22:54;103744.03;;;15.10;48.39
11395;BME280;5753;54.402;10.220;2023-02-13T05:25:40;103740.69;;;14.93;49.09
11395;BME280;5753;54.402;10.220;2023-02-13T05:28:07;103729.91;;;15.43;48.00
11395;BME280;5753;54.402;10.220;2023-02-13T05:30:52;103735.81;;;14.07;50.35
11395;BME280;5753;54.402;10.220;2023-02-13T05:33:18;103736.94;;;13.95;51.28
11395;BME280;5753;54.402;10.220;2023-02-13T05:35:44;103740.13;;;13.05;54.24
11395;BME280;5753;54.402;10.220;2023-02-13T05:38:10;103741.16;;;14.65;50.03
11395;BME280;5753;54.402;10.220;2023-02-13T05:40:37;103745.91;;;12.21;55.26
11395;BME280;5753;54.402;10.220;2023-02-13T05:43:03;103738.69;;;12.77;54.13
11395;BME280;5753;54.402;10.220;2023-02-13T05:45:29;103742.78;;;13.06;53.59
11395;BME280;5753;54.402;10.220;2023-02-13T05:47:55;103742.38;;;13.65;52.24
11395;BME280;5753;54.402;10.220;2023-02-13T05:50:21;103753.78;;;12.08;55.64
11395;BME280;5753;54.402;10.220;2023-02-13T05:52:47;103749.72;;;11.96;57.16
11395;BME280;5753;54.402;10.220;2023-02-13T05:55:14;103747.41;;;12.96;54.30
11395;BME280;5753;54.402;10.220;2023-02-13T05:57:40;103760.59;;;13.00;54.09
11395;BME280;5753;54.402;10.220;2023-02-13T06:00:07;103753.63;;;12.05;56.46
11395;BME280;5753;54.402;10.220;2023-02-13T06:02:33;103752.22;;;11.95;57.62
11395;BME280;5753;54.402;10.220;2023-02-13T06:04:59;103756.66;;;13.57;53.70
11395;BME280;5753;54.402;10.220;2023-02-13T06:07:25;103761.22;;;13.45;52.52
11395;BME280;5753;54.402;10.220;2023-02-13T06:09:51;103762.69;;;13.07;53.61
11395;BME280;5753;54.402;10.220;2023-02-13T06:12:18;103766.34;;;12.78;54.77
11395;BME280;5753;54.402;10.220;2023-02-13T06:14:44;103761.94;;;12.61;55.09
11395;BME280;5753;54.402;10.220;2023-02-13T06:17:10;103765.56;;;12.65;55.36
11395;BME280;5753;54.402;10.220;2023-02-13T06:19:36;103759.84;;;12.70;55.52
11395;BME280;5753;54.402;10.220;2023-02-13T06:22:04;103770.94;;;14.01;52.18
11395;BME280;5753;54.402;10.220;2023-02-13T06:24:30;103762.16;;;13.63;53.42
11395;BME280;5753;54.402;10.220;2023-02-13T06:26:56;103768.38;;;12.84;54.84
11395;BME280;5753;54.402;10.220;2023-02-13T06:29:23;103762.75;;;11.83;57.33
11395;BME280;5753;54.402;10.220;2023-02-13T06:31:49;103767.72;;;11.80;57.58
11395;BME280;5753;54.402;10.220;2023-02-13T06:34:16;103764.53;;;13.10;53.96
11395;BME280;5753;54.402;10.220;2023-02-13T06:36:42;103770.59;;;11.85;58.31
11395;BME280;5753;54.402;10.220;2023-02-13T06:39:09;103769.72;;;12.30;56.78
11395;BME280;5753;54.402;10.220;2023-02-13T06:41:36;103773.78;;;13.71;53.13
11395;BME280;5753;54.402;10.220;2023-02-13T06:44:02;103776.97;;;12.68;55.83
11395;BME280;5753;54.402;10.220;2023-02-13T06:46:28;103774.22;;;13.29;53.87
11395;BME280;5753;54.402;10.220;2023-02-13T06:48:54;103786.16;;;12.78;55.76
11395;BME280;5753;54.402;10.220;2023-02-13T06:51:20;103782.22;;;12.08;57.26
11395;BME280;5753;54.402;10.220;2023-02-13T06:53:46;103788.34;;;13.03;55.61
11395;BME280;5753;54.402;10.220;2023-02-13T06:56:13;103793.25;;;12.20;56.66
11395;BME280;5753;54.402;10.220;2023-02-13T06:58:39;103796.88;;;13.33;54.07
11395;BME280;5753;54.402;10.220;2023-02-13T07:01:05;103795.91;;;11.90;56.72
11395;BME280;5753;54.402;10.220;2023-02-13T07:03:31;103791.78;;;12.71;55.05
11395;BME280;5753;54.402;10.220;2023-02-13T07:05:58;103796.69;;;12.97;55.47
11395;BME280;5753;54.402;10.220;2023-02-13T07:08:24;103794.06;;;12.19;56.31
11395;BME280;5753;54.402;10.220;2023-02-13T07:10:50;103791.41;;;12.03;57.37
11395;BME280;5753;54.402;10.220;2023-02-13T07:13:16;103795.69;;;12.17;55.98
11395;BME280;5753;54.402;10.220;2023-02-13T07:15:43;103796.34;;;12.44;55.70
11395;BME280;5753;54.402;10.220;2023-02-13T07:18:09;103800.28;;;12.37;56.47
11395;BME280;5753;54.402;10.220;2023-02-13T07:20:35;103800.22;;;12.21;56.38
11395;BME280;5753;54.402;10.220;2023-02-13T07:23:04;103799.66;;;12.41;55.62
11395;BME280;5753;54.402;10.220;2023-02-13T07:25:31;103804.50;;;12.35;56.31
11395;BME280;5753;54.402;10.220;2023-02-13T07:28:05;103804.44;;;12.97;54.99
11395;BME280;5753;54.402;10.220;2023-02-13T07:30:33;103806.44;;;12.39;56.51
11395;BME280;5753;54.402;10.220;2023-02-13T07:33:01;103805.38;;;11.77;57.07
11395;BME280;5753;54.402;10.220;2023-02-13T07:35:27;103805.28;;;12.34;55.86
11395;BME280;5753;54.402;10.220;2023-02-13T07:37:54;103802.56;;;13.94;52.00
11395;BME280;5753;54.402;10.220;2023-02-13T07:40:20;103809.22;;;12.13;56.65
11395;BME280;5753;54.402;10.220;2023-02-13T07:42:47;103814.03;;;12.36;55.12
11395;BME280;5753;54.402;10.220;2023-02-13T07:45:13;103811.56;;;14.36;51.11
11395;BME280;5753;54.402;10.220;2023-02-13T07:47:41;103822.19;;;12.75;54.64
11395;BME280;5753;54.402;10.220;2023-02-13T07:50:08;103816.59;;;13.14;53.68
11395;BME280;5753;54.402;10.220;2023-02-13T07:52:34;103826.41;;;11.68;56.82
11395;BME280;5753;54.402;10.220;2023-02-13T07:55:03;103821.16;;;12.40;55.73
11395;BME280;5753;54.402;10.220;2023-02-13T07:57:30;103825.41;;;12.54;54.88
11395;BME280;5753;54.402;10.220;2023-02-13T07:59:57;103830.38;;;12.06;55.49
11395;BME280;5753;54.402;10.220;2023-02-13T08:02:23;103813.56;;;13.38;53.25
11395;BME280;5753;54.402;10.220;2023-02-13T08:04:49;103815.72;;;12.67;54.26
11395;BME280;5753;54.402;10.220;2023-02-13T08:07:16;103819.28;;;12.69;54.87
11395;BME280;5753;54.402;10.220;2023-02-13T08:09:46;103820.72;;;13.94;51.87
11395;BME280;5753;54.402;10.220;2023-02-13T08:12:31;103819.50;;;13.53;52.43
11395;BME280;5753;54.402;10.220;2023-02-13T08:14:57;103820.84;;;12.50;54.85
11395;BME280;5753;54.402;10.220;2023-02-13T08:17:23;103823.00;;;13.21;52.90
11395;BME280;5753;54.402;10.220;2023-02-13T08:19:50;103820.97;;;12.68;54.11
11395;BME280;5753;54.402;10.220;2023-02-13T08:22:16;103818.00;;;12.77;54.78
11395;BME280;5753;54.402;10.220;2023-02-13T08:24:42;103815.91;;;14.01;51.05
11395;BME280;5753;54.402;10.220;2023-02-13T08:27:12;103821.34;;;13.07;53.14
11395;BME280;5753;54.402;10.220;2023-02-13T08:29:38;103821.56;;;13.42;53.05
11395;BME280;5753;54.402;10.220;2023-02-13T08:32:04;103832.47;;;12.42;55.48
11395;BME280;5753;54.402;10.220;2023-02-13T08:34:30;103820.31;;;12.87;53.89
11395;BME280;5753;54.402;10.220;2023-02-13T08:36:57;103817.16;;;12.61;54.63
11395;BME280;5753;54.402;10.220;2023-02-13T08:39:23;103826.94;;;12.98;53.60
11395;BME280;5753;54.402;10.220;2023-02-13T08:41:49;103821.38;;;12.76;53.86
11395;BME280;5753;54.402;10.220;2023-02-13T08:44:15;103819.53;;;12.27;55.45
11395;BME280;5753;54.402;10.220;2023-02-13T08:46:41;103821.50;;;13.25;53.54
11395;BME280;5753;54.402;10.220;2023-02-13T08:49:07;103824.44;;;12.69;53.71
11395;BME280;5753;54.402;10.220;2023-02-13T08:51:34;103827.81;;;13.30;53.06
11395;BME280;5753;54.402;10.220;2023-02-13T08:54:00;103824.88;;;13.90;52.04
11395;BME280;5753;54.402;10.220;2023-02-13T08:56:26;103826.50;;;14.06;50.66
11395;BME280;5753;54.402;10.220;2023-02-13T08:58:52;103829.69;;;13.01;52.24
11395;BME280;5753;54.402;10.220;2023-02-13T09:01:19;103826.38;;;14.74;49.18
11395;BME280;5753;54.402;10.220;2023-02-13T09:03:46;103824.88;;;13.90;50.46
11395;BME280;5753;54.402;10.220;2023-02-13T09:06:13;103821.84;;;13.99;51.41
11395;BME280;5753;54.402;10.220;2023-02-13T09:08:39;103829.41;;;15.80;47.35
11395;BME280;5753;54.402;10.220;2023-02-13T09:11:05;103820.53;;;16.16;46.50
11395;BME280;5753;54.402;10.220;2023-02-13T09:13:33;103819.66;;;16.38;45.86
11395;BME280;5753;54.402;10.220;2023-02-13T09:16:01;103827.69;;;14.84;48.48
11395;BME280;5753;54.402;10.220;2023-02-13T09:18:27;103821.34;;;15.94;47.08
11395;BME280;5753;54.402;10.220;2023-02-13T09:21:05;103817.94;;;16.38;45.76
11395;BME280;5753;54.402;10.220;2023-02-13T09:23:33;103822.16;;;15.53;46.96
11395;BME280;5753;54.402;10.220;2023-02-13T09:26:06;103825.72;;;14.78;49.14
11395;BME280;5753;54.402;10.220;2023-02-13T09:28:33;103816.53;;;16.47;45.77
11395;BME280;5753;54.402;10.220;2023-02-13T09:31:09;103818.69;;;16.79;45.15
11395;BME280;5753;54.402;10.220;2023-02-13T09:33:37;103824.25;;;16.02;45.84
11395;BME280;5753;54.402;10.220;2023-02-13T09:36:08;103825.50;;;16.10;46.23
11395;BME280;5753;54.402;10.220;2023-02-13T09:38:35;103825.22;;;16.25;45.75
11395;BME280;5753;54.402;10.220;2023-02-13T09:41:23;103827.72;;;14.30;48.60
11395;BME280;5753;54.402;10.220;2023-02-13T09:44:28;103831.75;;;15.35;47.15
11395;BME280;5753;54.402;10.220;2023-02-13T09:49:43;103817.59;;;16.52;45.36
11395;BME280;5753;54.402;10.220;2023-02-13T09:52:11;103822.16;;;14.76;47.93
11395;BME280;5753;54.402;10.220;2023-02-13T09:54:37;103826.13;;;15.06;47.14
11395;BME280;5753;54.402;10.220;2023-02-13T10:00:00;103811.75;;;13.53;51.00
11395;BME280;5753;54.402;10.220;2023-02-13T10:02:40;103816.75;;;14.54;49.03
11395;BME280;5753;54.402;10.220;2023-02-13T10:13:26;103836.16;;;15.17;47.56
11395;BME280;5753;54.402;10.220;2023-02-13T10:18:54;103836.75;;;15.69;46.94
11395;BME280;5753;54.402;10.220;2023-02-13T10:21:28;103834.47;;;14.80;47.44
11395;BME280;5753;54.402;10.220;2023-02-13T10:24:16;103842.09;;;14.41;48.67
11395;BME280;5753;54.402;10.220;2023-02-13T10:26:47;103841.97;;;12.89;51.00
11395;BME280;5753;54.402;10.220;2023-02-13T10:32:19;103837.66;;;13.53;51.10
11395;BME280;5753;54.402;10.220;2023-02-13T10:34:47;103837.53;;;13.84;49.97
11395;BME280;5753;54.402;10.220;2023-02-13T10:37:16;103828.72;;;13.98;50.22
11395;BME280;5753;54.402;10.220;2023-02-13T10:39:51;103829.97;;;13.89;50.18
11395;BME280;5753;54.402;10.220;2023-02-13T10:48:38;103832.53;;;13.06;51.49
11395;BME280;5753;54.402;10.220;2023-02-13T10:56:56;103811.38;;;15.84;46.19
11395;BME280;5753;54.402;10.220;2023-02-13T10:59:54;103809.78;;;15.09;47.53
11395;BME280;5753;54.402;10.220;2023-02-13T11:02:29;103799.94;;;15.60;46.30
11395;BME280;5753;54.402;10.220;2023-02-13T11:04:59;103806.19;;;13.79;49.51
11395;BME280;5753;54.402;10.220;2023-02-13T11:07:27;103805.50;;;14.90;48.26
11395;BME280;5753;54.402;10.220;2023-02-13T11:09:59;103808.88;;;13.99;49.12
11395;BME280;5753;54.402;10.220;2023-02-13T11:12:33;103798.19;;;13.25;51.12
11395;BME280;5753;54.402;10.220;2023-02-13T11:15:26;103803.44;;;14.83;48.36
11395;BME280;5753;54.402;10.220;2023-02-13T11:17:55;103799.88;;;15.39;46.97
11395;BME280;5753;54.402;10.220;2023-02-13T11:20:36;103797.78;;;14.55;48.62
11395;BME280;5753;54.402;10.220;2023-02-13T11:25:59;103799.50;;;15.30;47.00
11395;BME280;5753;54.402;10.220;2023-02-13T11:28:28;103799.91;;;16.88;43.63
11395;BME280;5753;54.402;10.220;2023-02-13T11:33:52;103798.53;;;16.30;44.91
11395;BME280;5753;54.402;10.220;2023-02-13T11:36:30;103803.69;;;14.70;47.59
11395;BME280;5753;54.402;10.220;2023-02-13T11:39:17;103792.50;;;15.67;45.78
11395;BME280;5753;54.402;10.220;2023-02-13T11:41:46;103798.56;;;15.89;45.70
11395;BME280;5753;54.402;10.220;2023-02-13T11:44:28;103800.28;;;16.09;45.30
11395;BME280;5753;54.402;10.220;2023-02-13T11:46:57;103805.09;;;15.00;47.10
11395;BME280;5753;54.402;10.220;2023-02-13T11:49:27;103793.28;;;15.47;46.85
11395;BME280;5753;54.402;10.220;2023-02-13T11:51:58;103793.63;;;16.16;44.88
11395;BME280;5753;54.402;10.220;2023-02-13T11:54:44;103791.22;;;14.63;48.11
11395;BME280;5753;54.402;10.220;2023-02-13T11:57:24;103791.56;;;16.29;44.45
11395;BME280;5753;54.402;10.220;2023-02-13T11:59:53;103787.72;;;15.38;46.15
11395;BME280;5753;54.402;10.220;2023-02-13T12:04:48;103789.50;;;15.00;46.00
11395;BME280;5753;54.402;10.220;2023-02-13T12:07:29;103775.84;;;15.85;45.57
11395;BME280;5753;54.402;10.220;2023-02-13T12:10:15;103780.59;;;15.34;46.06
11395;BME280;5753;54.402;10.220;2023-02-13T12:12:58;103783.47;;;15.40;46.52
11395;BME280;5753;54.402;10.220;2023-02-13T12:15:31;103790.78;;;15.89;44.13
11395;BME280;5753;54.402;10.220;2023-02-13T12:18:24;103794.16;;;15.27;46.26
11395;BME280;5753;54.402;10.220;2023-02-13T12:26:34;103791.84;;;17.04;41.98
11395;BME280;5753;54.402;10.220;2023-02-13T12:43:32;103778.72;;;17.03;41.49
11395;BME280;5753;54.402;10.220;2023-02-13T13:00:35;103775.38;;;17.54;40.50
11395;BME280;5753;54.402;10.220;2023-02-13T13:13:59;103791.78;;;18.30;39.67
11395;BME280;5753;54.402;10.220;2023-02-13T13:16:40;103795.06;;;17.21;41.18
11395;BME280;5753;54.402;10.220;2023-02-13T13:30:17;103780.66;;;17.07;40.24
11395;BME280;5753;54.402;10.220;2023-02-13T13:32:45;103780.00;;;16.66;41.07
11395;BME280;5753;54.402;10.220;2023-02-13T13:35:14;103784.56;;;16.28;42.00
11395;BME280;5753;54.402;10.220;2023-02-13T13:37:50;103783.84;;;16.99;40.78
11395;BME280;5753;54.402;10.220;2023-02-13T13:40:45;103774.56;;;17.06;41.21
11395;BME280;5753;54.402;10.220;2023-02-13T13:43:53;103781.00;;;16.93;41.02
11395;BME280;5753;54.402;10.220;2023-02-13T13:51:17;103783.28;;;15.76;42.54
11395;BME280;5753;54.402;10.220;2023-02-13T13:56:26;103784.13;;;15.74;42.99
11395;BME280;5753;54.402;10.220;2023-02-13T13:58:52;103789.28;;;15.34;43.94
11395;BME280;5753;54.402;10.220;2023-02-13T14:06:19;103770.16;;;17.05;41.57
11395;BME280;5753;54.402;10.220;2023-02-13T14:14:00;103775.63;;;17.87;40.26
11395;BME280;5753;54.402;10.220;2023-02-13T14:16:38;103765.19;;;17.37;40.89
11395;BME280;5753;54.402;10.220;2023-02-13T14:19:21;103762.69;;;17.90;40.42
11395;BME280;5753;54.402;10.220;2023-02-13T14:21:48;103752.41;;;16.71;41.99
11395;BME280;5753;54.402;10.220;2023-02-13T14:24:18;103762.84;;;17.44;40.14
11395;BME280;5753;54.402;10.220;2023-02-13T14:26:53;103762.06;;;16.08;41.39
11395;BME280;5753;54.402;10.220;2023-02-13T14:29:29;103758.00;;;17.29;40.31
11395;BME280;5753;54.402;10.220;2023-02-13T14:32:13;103767.75;;;17.86;39.36
11395;BME280;5753;54.402;10.220;2023-02-13T14:34:42;103752.38;;;18.22;38.50
11395;BME280;5753;54.402;10.220;2023-02-13T14:37:15;103751.41;;;18.75;37.98
11395;BME280;5753;54.402;10.220;2023-02-13T14:42:37;103754.59;;;16.60;40.82
11395;BME280;5753;54.402;10.220;2023-02-13T14:45:15;103747.97;;;17.16;40.62
11395;BME280;5753;54.402;10.220;2023-02-13T14:47:48;103748.47;;;16.82;41.52
11395;BME280;5753;54.402;10.220;2023-02-13T14:50:57;103745.91;;;17.31;40.84
11395;BME280;5753;54.402;10.220;2023-02-13T14:53:30;103748.34;;;17.78;40.33
11395;BME280;5753;54.402;10.220;2023-02-13T14:56:04;103742.75;;;18.19;39.35
11395;BME280;5753;54.402;10.220;2023-02-13T14:58:34;103746.16;;;17.65;40.27
11395;BME280;5753;54.402;10.220;2023-02-13T15:03:56;103746.63;;;15.50;43.86
11395;BME280;5753;54.402;10.220;2023-02-13T15:06:28;103745.75;;;15.29;43.89
11395;BME280;5753;54.402;10.220;2023-02-13T15:08:59;103743.72;;;14.83;44.58
11395;BME280;5753;54.402;10.220;2023-02-13T15:11:41;103737.81;;;15.66;43.68
11395;BME280;5753;54.402;10.220;2023-02-13T15:17:05;103727.28;;;15.84;43.76
11395;BME280;5753;54.402;10.220;2023-02-13T15:19:34;103733.94;;;16.20;42.20
11395;BME280;5753;54.402;10.220;2023-02-13T15:22:04;103728.69;;;15.98;42.41
11395;BME280;5753;54.402;10.220;2023-02-13T15:24:46;103737.84;;;13.61;47.35
11395;BME280;5753;54.402;10.220;2023-02-13T15:27:18;103740.72;;;14.74;45.13
11395;BME280;5753;54.402;10.220;2023-02-13T15:30:17;103726.50;;;15.86;43.00
11395;BME280;5753;54.402;10.220;2023-02-13T15:32:43;103724.63;;;16.04;42.06
11395;BME280;5753;54.402;10.220;2023-02-13T15:35:25;103735.44;;;14.92;44.81
11395;BME280;5753;54.402;10.220;2023-02-13T15:37:51;103731.66;;;16.52;41.94
11395;BME280;5753;54.402;10.220;2023-02-13T15:40:29;103729.72;;;17.42;40.63
11395;BME280;5753;54.402;10.220;2023-02-13T15:42:56;103726.31;;;17.44;40.57
11395;BME280;5753;54.402;10.220;2023-02-13T15:45:25;103729.28;;;16.80;41.25
11395;BME280;5753;54.402;10.220;2023-02-13T15:47:52;103727.72;;;14.74;43.65
11395;BME280;5753;54.402;10.220;2023-02-13T15:50:32;103724.56;;;16.03;42.35
11395;BME280;5753;54.402;10.220;2023-02-13T15:53:01;103720.69;;;13.99;45.69
11395;BME280;5753;54.402;10.220;2023-02-13T15:55:30;103724.44;;;14.78;44.56
11395;BME280;5753;54.402;10.220;2023-02-13T15:57:59;103719.97;;;14.56;45.82
11395;BME280;5753;54.402;10.220;2023-02-13T16:00:32;103714.16;;;16.03;43.03
11395;BME280;5753;54.402;10.220;2023-02-13T16:03:01;103722.91;;;16.50;41.71
11395;BME280;5753;54.402;10.220;2023-02-13T16:05:32;103714.19;;;14.81;44.50
11395;BME280;5753;54.402;10.220;2023-02-13T16:08:02;103721.78;;;15.36;43.56
11395;BME280;5753;54.402;10.220;2023-02-13T16:10:33;103725.78;;;16.11;41.79
11395;BME280;5753;54.402;10.220;2023-02-13T16:13:05;103732.13;;;15.97;42.42
11395;BME280;5753;54.402;10.220;2023-02-13T16:15:35;103718.31;;;17.13;40.24
11395;BME280;5753;54.402;10.220;2023-02-13T16:18:02;103720.00;;;15.97;42.69
11395;BME280;5753;54.402;10.220;2023-02-13T16:20:32;103721.84;;;16.45;41.51